sensor_id;sensor_type;location;lat;lon;timestamp;pressure;altitude;pressure_sealevel;temperature;humidity
18790;BME280;9523;42.650;23.386;2023-02-18T00:01:16;95291.66;;;3.79;63.05
18790;BME280;9523;42.650;23.386;2023-02-18T00:03:44;95342.84;;;4.03;63.63
18790;BME280;9523;42.650;23.386;2023-02-18T00:06:14;95346.09;;;4.10;63.81
18790;BME280;9523;42.650;23.386;2023-02-18T00:08:43;95348.72;;;3.99;64.84
18790;BME280;9523;42.650;23.386;2023-02-18T00:11:10;95340.69;;;4.00;65.29
18790;BME280;9523;42.650;23.386;2023-02-18T00:13:38;95327.75;;;3.94;66.24
18790;BME280;9523;42.650;23.386;2023-02-18T00:16:07;95331.25;;;4.11;65.20
18790;BME280;9523;42.650;23.386;2023-02-18T00:18:34;95330.00;;;4.13;65.65
18790;BME280;9523;42.650;23.386;2023-02-18T00:21:02;95320.13;;;4.04;65.62
18790;BME280;9523;42.650;23.386;2023-02-18T00:23:31;95321.72;;;4.05;65.92
18790;BME280;9523;42.650;23.386;2023-02-18T00:25:59;95311.28;;;4.05;65.97
18790;BME280;9523;42.650;23.386;2023-02-18T00:28:27;95316.16;;;4.01;65.81
18790;BME280;9523;42.650;23.386;2023-02-18T00:30:54;95309.69;;;4.04;65.86
18790;BME280;9523;42.650;23.386;2023-02-18T00:33:21;95300.84;;;4.05;66.41
18790;BME280;9523;42.650;23.386;2023-02-18T00:35:48;95290.50;;;3.98;65.71
18790;BME280;9523;42.650;23.386;2023-02-18T00:38:14;95285.06;;;3.88;65.61
18790;BME280;9523;42.650;23.386;2023-02-18T00:40:43;95287.34;;;3.96;65.60
18790;BME280;9523;42.650;23.386;2023-02-18T00:43:10;95284.22;;;4.11;64.87
18790;BME280;9523;42.650;23.386;2023-02-18T00:45:37;95282.78;;;4.03;65.62
18790;BME280;9523;42.650;23.386;2023-02-18T00:48:04;95301.72;;;4.10;65.26
18790;BME280;9523;42.650;23.386;2023-02-18T00:50:31;95290.72;;;4.08;66.62
18790;BME280;9523;42.650;23.386;2023-02-18T00:52:58;95305.72;;;4.01;66.01
18790;BME280;9523;42.650;23.386;2023-02-18T00:55:24;95271.56;;;3.91;65.44
18790;BME280;9523;42.650;23.386;2023-02-18T00:57:55;95288.31;;;4.07;66.40
18790;BME280;9523;42.650;23.386;2023-02-18T01:00:23;95296.09;;;4.02;67.03
18790;BME280;9523;42.650;23.386;2023-02-18T01:02:51;95271.44;;;3.98;66.49
18790;BME280;9523;42.650;23.386;2023-02-18T01:05:20;95295.16;;;4.08;65.59
18790;BME280;9523;42.650;23.386;2023-02-18T01:07:47;95286.41;;;4.02;65.80
18790;BME280;9523;42.650;23.386;2023-02-18T01:10:13;95297.97;;;4.06;66.26
18790;BME280;9523;42.650;23.386;2023-02-18T01:12:40;95296.41;;;4.05;66.47
18790;BME280;9523;42.650;23.386;2023-02-18T01:15:11;95287.19;;;4.03;66.70
18790;BME280;9523;42.650;23.386;2023-02-18T01:17:39;95278.16;;;3.94;66.83
18790;BME280;9523;42.650;23.386;2023-02-18T01:20:07;95286.75;;;3.94;66.01
18790;BME280;9523;42.650;23.386;2023-02-18T01:22:34;95279.97;;;3.93;65.34
18790;BME280;9523;42.650;23.386;2023-02-18T01:25:01;95307.53;;;4.01;66.46
18790;BME280;9523;42.650;23.386;2023-02-18T01:27:28;95293.72;;;3.77;66.55
18790;BME280;9523;42.650;23.386;2023-02-18T01:29:55;95292.13;;;3.76;67.29
18790;BME280;9523;42.650;23.386;2023-02-18T01:32:23;95283.28;;;3.77;66.99
18790;BME280;9523;42.650;23.386;2023-02-18T01:34:50;95277.03;;;3.78;67.35
18790;BME280;9523;42.650;23.386;2023-02-18T01:37:17;95283.59;;;3.92;66.25
18790;BME280;9523;42.650;23.386;2023-02-18T01:39:43;95281.44;;;3.89;67.13
18790;BME280;9523;42.650;23.386;2023-02-18T01:42:18;95290.16;;;3.95;65.87
18790;BME280;9523;42.650;23.386;2023-02-18T01:44:46;95286.00;;;3.94;65.31
18790;BME280;9523;42.650;23.386;2023-02-18T01:47:14;95295.84;;;3.92;64.99
18790;BME280;9523;42.650;23.386;2023-02-18T01:49:44;95280.19;;;3.92;65.21
18790;BME280;9523;42.650;23.386;2023-02-18T01:52:14;95296.31;;;4.00;66.19
18790;BME280;9523;42.650;23.386;2023-02-18T01:54:45;95292.22;;;3.93;65.11
18790;BME280;9523;42.650;23.386;2023-02-18T01:57:16;95310.94;;;4.01;65.09
18790;BME280;9523;42.650;23.386;2023-02-18T01:59:47;95304.94;;;4.01;64.62
18790;BME280;9523;42.650;23.386;2023-02-18T02:02:16;95307.28;;;4.02;64.91
18790;BME280;9523;42.650;23.386;2023-02-18T02:04:46;95304.78;;;4.07;64.15
18790;BME280;9523;42.650;23.386;2023-02-18T02:07:14;95307.66;;;4.06;64.74
18790;BME280;9523;42.650;23.386;2023-02-18T02:09:41;95300.03;;;4.04;65.77
18790;BME280;9523;42.650;23.386;2023-02-18T02:12:27;95293.22;;;4.03;63.50
18790;BME280;9523;42.650;23.386;2023-02-18T02:15:15;95283.59;;;3.92;63.62
18790;BME280;9523;42.650;23.386;2023-02-18T02:17:53;95293.03;;;3.93;65.35
18790;BME280;9523;42.650;23.386;2023-02-18T02:20:58;95283.72;;;3.97;63.55
18790;BME280;9523;42.650;23.386;2023-02-18T02:24:00;95302.19;;;3.96;65.43
18790;BME280;9523;42.650;23.386;2023-02-18T02:26:59;95295.84;;;3.92;66.02
18790;BME280;9523;42.650;23.386;2023-02-18T02:29:55;95301.41;;;3.95;67.20
18790;BME280;9523;42.650;23.386;2023-02-18T02:35:36;95280.78;;;3.82;66.29
18790;BME280;9523;42.650;23.386;2023-02-18T02:38:06;95268.09;;;3.74;67.30
18790;BME280;9523;42.650;23.386;2023-02-18T02:40:41;95283.50;;;3.64;66.56
18790;BME280;9523;42.650;23.386;2023-02-18T02:43:18;95253.22;;;3.40;66.50
18790;BME280;9523;42.650;23.386;2023-02-18T02:45:51;95277.38;;;3.47;67.70
18790;BME280;9523;42.650;23.386;2023-02-18T02:48:25;95265.47;;;3.27;68.48
18790;BME280;9523;42.650;23.386;2023-02-18T02:51:03;95259.38;;;3.22;68.84
18790;BME280;9523;42.650;23.386;2023-02-18T02:53:33;95237.78;;;3.03;69.13
18790;BME280;9523;42.650;23.386;2023-02-18T02:56:01;95254.91;;;3.11;70.62
18790;BME280;9523;42.650;23.386;2023-02-18T02:58:28;95258.31;;;3.11;70.21
18790;BME280;9523;42.650;23.386;2023-02-18T03:01:19;95264.31;;;3.12;70.38
18790;BME280;9523;42.650;23.386;2023-02-18T03:04:06;95275.22;;;3.20;70.88
18790;BME280;9523;42.650;23.386;2023-02-18T03:06:47;95266.38;;;3.10;70.62
18790;BME280;9523;42.650;23.386;2023-02-18T03:09:25;95271.81;;;3.20;70.88
18790;BME280;9523;42.650;23.386;2023-02-18T03:12:00;95281.78;;;3.23;70.64
18790;BME280;9523;42.650;23.386;2023-02-18T03:14:35;95284.88;;;3.31;70.86
18790;BME280;9523;42.650;23.386;2023-02-18T03:17:11;95274.22;;;3.21;71.20
18790;BME280;9523;42.650;23.386;2023-02-18T03:19:46;95275.34;;;3.25;71.01
18790;BME280;9523;42.650;23.386;2023-02-18T03:22:19;95274.88;;;3.28;70.47
18790;BME280;9523;42.650;23.386;2023-02-18T03:24:49;95286.44;;;3.21;70.63
18790;BME280;9523;42.650;23.386;2023-02-18T03:27:20;95296.22;;;3.25;71.35
18790;BME280;9523;42.650;23.386;2023-02-18T03:29:52;95300.84;;;3.23;70.92
18790;BME280;9523;42.650;23.386;2023-02-18T03:32:23;95310.94;;;3.31;70.71
18790;BME280;9523;42.650;23.386;2023-02-18T03:34:54;95259.53;;;2.86;70.41
18790;BME280;9523;42.650;23.386;2023-02-18T03:37:24;95305.25;;;3.11;71.01
18790;BME280;9523;42.650;23.386;2023-02-18T03:39:54;95321.34;;;3.08;72.62
18790;BME280;9523;42.650;23.386;2023-02-18T03:42:25;95328.47;;;3.01;73.42
18790;BME280;9523;42.650;23.386;2023-02-18T03:44:52;95332.69;;;3.02;72.98
18790;BME280;9523;42.650;23.386;2023-02-18T03:47:19;95309.88;;;2.98;73.80
18790;BME280;9523;42.650;23.386;2023-02-18T03:49:46;95325.59;;;2.91;73.54
18790;BME280;9523;42.650;23.386;2023-02-18T03:52:13;95334.81;;;2.94;74.10
18790;BME280;9523;42.650;23.386;2023-02-18T03:54:44;95349.38;;;2.83;74.96
18790;BME280;9523;42.650;23.386;2023-02-18T03:57:11;95340.28;;;2.74;75.50
18790;BME280;9523;42.650;23.386;2023-02-18T03:59:37;95333.81;;;2.76;76.11
18790;BME280;9523;42.650;23.386;2023-02-18T04:02:04;95327.78;;;2.64;76.28
18790;BME280;9523;42.650;23.386;2023-02-18T04:04:31;95333.19;;;2.63;76.91
18790;BME280;9523;42.650;23.386;2023-02-18T04:06:58;95307.47;;;2.55;77.45
18790;BME280;9523;42.650;23.386;2023-02-18T04:09:25;95317.75;;;2.50;78.21
18790;BME280;9523;42.650;23.386;2023-02-18T04:11:53;95328.88;;;2.57;78.88
18790;BME280;9523;42.650;23.386;2023-02-18T04:14:20;95315.47;;;2.42;79.85
18790;BME280;9523;42.650;23.386;2023-02-18T04:16:47;95287.97;;;2.27;79.86
18790;BME280;9523;42.650;23.386;2023-02-18T04:19:14;95300.88;;;2.52;80.35
18790;BME280;9523;42.650;23.386;2023-02-18T04:21:40;95296.13;;;2.49;78.98
18790;BME280;9523;42.650;23.386;2023-02-18T04:24:07;95310.44;;;2.58;80.76
18790;BME280;9523;42.650;23.386;2023-02-18T04:26:34;95294.19;;;2.45;80.32
18790;BME280;9523;42.650;23.386;2023-02-18T04:29:05;95304.69;;;2.38;79.73
18790;BME280;9523;42.650;23.386;2023-02-18T04:31:32;95302.59;;;2.28;81.45
18790;BME280;9523;42.650;23.386;2023-02-18T04:33:59;95289.31;;;2.18;81.41
18790;BME280;9523;42.650;23.386;2023-02-18T04:36:26;95274.84;;;2.04;81.97
18790;BME280;9523;42.650;23.386;2023-02-18T04:38:53;95271.63;;;1.91;83.11
18790;BME280;9523;42.650;23.386;2023-02-18T04:41:20;95290.09;;;2.01;83.49
18790;BME280;9523;42.650;23.386;2023-02-18T04:43:47;95284.41;;;1.92;85.07
18790;BME280;9523;42.650;23.386;2023-02-18T04:46:15;95291.00;;;1.95;84.83
18790;BME280;9523;42.650;23.386;2023-02-18T04:48:42;95283.94;;;1.95;85.36
18790;BME280;9523;42.650;23.386;2023-02-18T04:51:09;95307.53;;;2.00;85.34
18790;BME280;9523;42.650;23.386;2023-02-18T04:53:36;95309.84;;;2.08;86.65
18790;BME280;9523;42.650;23.386;2023-02-18T04:56:03;95294.22;;;2.08;85.71
18790;BME280;9523;42.650;23.386;2023-02-18T04:58:30;95298.00;;;1.94;85.73
18790;BME280;9523;42.650;23.386;2023-02-18T05:00:58;95312.28;;;2.03;85.63
18790;BME280;9523;42.650;23.386;2023-02-18T05:03:27;95309.56;;;1.98;85.32
18790;BME280;9523;42.650;23.386;2023-02-18T05:05:54;95313.44;;;2.07;85.17
18790;BME280;9523;42.650;23.386;2023-02-18T05:08:21;95324.59;;;2.14;84.67
18790;BME280;9523;42.650;23.386;2023-02-18T05:10:48;95314.53;;;2.00;84.90
18790;BME280;9523;42.650;23.386;2023-02-18T05:13:15;95314.03;;;2.09;85.56
18790;BME280;9523;42.650;23.386;2023-02-18T05:15:42;95305.72;;;2.19;84.96
18790;BME280;9523;42.650;23.386;2023-02-18T05:18:09;95293.72;;;2.18;85.03
18790;BME280;9523;42.650;23.386;2023-02-18T05:20:37;95300.88;;;2.22;84.07
18790;BME280;9523;42.650;23.386;2023-02-18T05:23:04;95304.63;;;2.26;82.77
18790;BME280;9523;42.650;23.386;2023-02-18T05:25:31;95321.53;;;2.35;82.53
18790;BME280;9523;42.650;23.386;2023-02-18T05:27:58;95302.78;;;2.27;82.85
18790;BME280;9523;42.650;23.386;2023-02-18T05:30:25;95311.09;;;2.35;82.97
18790;BME280;9523;42.650;23.386;2023-02-18T05:32:52;95305.09;;;2.35;82.84
18790;BME280;9523;42.650;23.386;2023-02-18T05:35:18;95306.19;;;2.46;82.00
18790;BME280;9523;42.650;23.386;2023-02-18T05:37:47;95297.75;;;2.62;81.07
18790;BME280;9523;42.650;23.386;2023-02-18T05:40:14;95310.75;;;2.92;85.00
18790;BME280;9523;42.650;23.386;2023-02-18T05:42:41;95302.63;;;3.11;85.75
18790;BME280;9523;42.650;23.386;2023-02-18T05:45:08;95314.78;;;3.17;82.87
18790;BME280;9523;42.650;23.386;2023-02-18T05:47:35;95315.25;;;3.14;81.14
18790;BME280;9523;42.650;23.386;2023-02-18T05:50:02;95295.06;;;3.21;83.12
18790;BME280;9523;42.650;23.386;2023-02-18T05:52:29;95309.94;;;3.33;79.37
18790;BME280;9523;42.650;23.386;2023-02-18T05:54:57;95315.97;;;3.45;80.76
18790;BME280;9523;42.650;23.386;2023-02-18T05:57:25;95316.19;;;3.55;79.50
18790;BME280;9523;42.650;23.386;2023-02-18T05:59:52;95333.44;;;3.67;76.75
18790;BME280;9523;42.650;23.386;2023-02-18T06:02:19;95328.47;;;3.66;75.80
18790;BME280;9523;42.650;23.386;2023-02-18T06:04:46;95326.28;;;3.63;74.83
18790;BME280;9523;42.650;23.386;2023-02-18T06:07:13;95345.34;;;3.63;73.88
18790;BME280;9523;42.650;23.386;2023-02-18T06:09:40;95336.97;;;3.73;72.36
18790;BME280;9523;42.650;23.386;2023-02-18T06:12:09;95325.94;;;3.71;71.32
18790;BME280;9523;42.650;23.386;2023-02-18T06:14:36;95320.72;;;3.71;72.06
18790;BME280;9523;42.650;23.386;2023-02-18T06:17:06;95324.59;;;3.80;70.89
18790;BME280;9523;42.650;23.386;2023-02-18T06:19:33;95335.34;;;3.95;70.65
18790;BME280;9523;42.650;23.386;2023-02-18T06:22:00;95340.34;;;4.08;69.89
18790;BME280;9523;42.650;23.386;2023-02-18T06:24:27;95327.50;;;4.07;68.30
18790;BME280;9523;42.650;23.386;2023-02-18T06:26:54;95301.63;;;4.05;68.63
18790;BME280;9523;42.650;23.386;2023-02-18T06:29:25;95324.78;;;4.13;69.29
18790;BME280;9523;42.650;23.386;2023-02-18T06:31:54;95327.38;;;4.13;69.99
18790;BME280;9523;42.650;23.386;2023-02-18T06:34:21;95312.44;;;3.97;69.67
18790;BME280;9523;42.650;23.386;2023-02-18T06:36:47;95308.88;;;4.15;69.18
18790;BME280;9523;42.650;23.386;2023-02-18T06:39:14;95310.53;;;4.33;69.17
18790;BME280;9523;42.650;23.386;2023-02-18T06:41:41;95284.59;;;4.43;68.32
18790;BME280;9523;42.650;23.386;2023-02-18T06:44:08;95324.19;;;4.63;67.74
18790;BME280;9523;42.650;23.386;2023-02-18T06:46:40;95326.19;;;4.72;67.53
18790;BME280;9523;42.650;23.386;2023-02-18T06:49:07;95314.38;;;4.70;67.79
18790;BME280;9523;42.650;23.386;2023-02-18T06:51:34;95310.94;;;4.81;68.03
18790;BME280;9523;42.650;23.386;2023-02-18T06:54:01;95314.91;;;4.84;68.98
18790;BME280;9523;42.650;23.386;2023-02-18T06:56:28;95306.09;;;4.73;68.19
18790;BME280;9523;42.650;23.386;2023-02-18T06:58:58;95319.03;;;4.96;68.11
18790;BME280;9523;42.650;23.386;2023-02-18T07:01:31;95310.91;;;5.09;66.46
18790;BME280;9523;42.650;23.386;2023-02-18T07:04:00;95311.69;;;5.10;67.16
18790;BME280;9523;42.650;23.386;2023-02-18T07:06:27;95264.50;;;4.88;65.62
18790;BME280;9523;42.650;23.386;2023-02-18T07:08:54;95315.09;;;5.27;64.81
18790;BME280;9523;42.650;23.386;2023-02-18T07:11:21;95315.13;;;5.44;64.50
18790;BME280;9523;42.650;23.386;2023-02-18T07:13:48;95304.34;;;5.57;63.68
18790;BME280;9523;42.650;23.386;2023-02-18T07:16:14;95312.41;;;5.72;64.00
18790;BME280;9523;42.650;23.386;2023-02-18T07:18:41;95285.59;;;5.65;63.31
18790;BME280;9523;42.650;23.386;2023-02-18T07:21:10;95304.56;;;5.89;62.39
18790;BME280;9523;42.650;23.386;2023-02-18T07:23:37;95289.78;;;5.99;59.82
18790;BME280;9523;42.650;23.386;2023-02-18T07:26:05;95295.19;;;6.14;60.52
18790;BME280;9523;42.650;23.386;2023-02-18T07:28:32;95308.97;;;6.27;60.20
18790;BME280;9523;42.650;23.386;2023-02-18T07:30:59;95288.00;;;6.27;60.06
18790;BME280;9523;42.650;23.386;2023-02-18T07:33:27;95300.38;;;6.53;58.07
18790;BME280;9523;42.650;23.386;2023-02-18T07:35:55;95316.16;;;6.58;58.42
18790;BME280;9523;42.650;23.386;2023-02-18T07:38:25;95314.56;;;6.57;57.79
18790;BME280;9523;42.650;23.386;2023-02-18T07:40:53;95315.66;;;6.61;57.14
18790;BME280;9523;42.650;23.386;2023-02-18T07:43:20;95291.16;;;6.50;56.00
18790;BME280;9523;42.650;23.386;2023-02-18T07:45:47;95316.81;;;6.70;55.98
18790;BME280;9523;42.650;23.386;2023-02-18T07:48:14;95310.03;;;6.74;56.81
18790;BME280;9523;42.650;23.386;2023-02-18T07:50:43;95327.00;;;6.88;55.87
18790;BME280;9523;42.650;23.386;2023-02-18T07:53:11;95344.00;;;6.86;56.44
18790;BME280;9523;42.650;23.386;2023-02-18T07:55:39;95317.53;;;6.87;55.45
18790;BME280;9523;42.650;23.386;2023-02-18T07:58:16;95324.00;;;7.06;53.72
18790;BME280;9523;42.650;23.386;2023-02-18T08:00:46;95327.28;;;7.19;52.98
18790;BME280;9523;42.650;23.386;2023-02-18T08:03:14;95327.50;;;7.17;52.88
18790;BME280;9523;42.650;23.386;2023-02-18T08:05:44;95313.00;;;7.09;52.83
18790;BME280;9523;42.650;23.386;2023-02-18T08:08:12;95306.63;;;7.27;52.56
18790;BME280;9523;42.650;23.386;2023-02-18T08:10:41;95314.84;;;7.41;52.67
18790;BME280;9523;42.650;23.386;2023-02-18T08:13:08;95319.47;;;7.61;51.75
18790;BME280;9523;42.650;23.386;2023-02-18T08:15:36;95318.03;;;7.75;51.71
18790;BME280;9523;42.650;23.386;2023-02-18T08:18:04;95318.66;;;7.92;51.04
18790;BME280;9523;42.650;23.386;2023-02-18T08:20:34;95321.59;;;8.00;51.11
18790;BME280;9523;42.650;23.386;2023-02-18T08:23:04;95312.81;;;8.27;50.95
18790;BME280;9523;42.650;23.386;2023-02-18T08:25:34;95248.38;;;8.24;50.19
18790;BME280;9523;42.650;23.386;2023-02-18T08:28:03;95317.59;;;9.22;48.69
18790;BME280;9523;42.650;23.386;2023-02-18T08:30:30;95313.38;;;9.72;46.54
18790;BME280;9523;42.650;23.386;2023-02-18T08:32:59;95309.97;;;9.86;46.29
18790;BME280;9523;42.650;23.386;2023-02-18T08:35:26;95300.22;;;9.87;45.37
18790;BME280;9523;42.650;23.386;2023-02-18T08:37:53;95303.38;;;9.79;45.55
18790;BME280;9523;42.650;23.386;2023-02-18T08:40:21;95288.38;;;9.49;45.66
18790;BME280;9523;42.650;23.386;2023-02-18T08:42:52;95285.75;;;9.44;46.04
18790;BME280;9523;42.650;23.386;2023-02-18T08:45:20;95288.41;;;9.39;47.94
18790;BME280;9523;42.650;23.386;2023-02-18T08:47:47;95276.81;;;9.35;47.66
18790;BME280;9523;42.650;23.386;2023-02-18T08:50:14;95290.22;;;9.54;46.41
18790;BME280;9523;42.650;23.386;2023-02-18T08:52:41;95300.22;;;9.62;46.62
18790;BME280;9523;42.650;23.386;2023-02-18T08:55:10;95295.75;;;9.62;46.10
18790;BME280;9523;42.650;23.386;2023-02-18T08:57:38;95306.03;;;9.74;45.85
18790;BME280;9523;42.650;23.386;2023-02-18T09:00:06;95306.81;;;9.69;46.70
18790;BME280;9523;42.650;23.386;2023-02-18T09:02:34;95303.63;;;9.87;46.92
18790;BME280;9523;42.650;23.386;2023-02-18T09:05:01;95300.50;;;9.70;47.12
18790;BME280;9523;42.650;23.386;2023-02-18T09:07:28;95293.06;;;9.93;46.12
18790;BME280;9523;42.650;23.386;2023-02-18T09:09:55;95291.22;;;10.18;45.16
18790;BME280;9523;42.650;23.386;2023-02-18T09:12:22;95322.03;;;10.33;44.08
18790;BME280;9523;42.650;23.386;2023-02-18T09:14:49;95306.44;;;10.31;43.80
18790;BME280;9523;42.650;23.386;2023-02-18T09:17:16;95300.34;;;10.46;43.39
18790;BME280;9523;42.650;23.386;2023-02-18T09:19:45;95299.03;;;10.44;44.95
18790;BME280;9523;42.650;23.386;2023-02-18T09:22:12;95306.06;;;10.68;44.00
18790;BME280;9523;42.650;23.386;2023-02-18T09:24:40;95299.94;;;10.78;42.49
18790;BME280;9523;42.650;23.386;2023-02-18T09:27:08;95301.91;;;11.06;41.88
18790;BME280;9523;42.650;23.386;2023-02-18T09:29:37;95282.06;;;11.14;41.31
18790;BME280;9523;42.650;23.386;2023-02-18T09:32:05;95300.38;;;11.73;40.68
18790;BME280;9523;42.650;23.386;2023-02-18T09:34:33;95284.22;;;12.03;40.07
18790;BME280;9523;42.650;23.386;2023-02-18T09:37:02;95290.75;;;12.58;38.85
18790;BME280;9523;42.650;23.386;2023-02-18T09:39:32;95280.75;;;13.68;37.47
18790;BME280;9523;42.650;23.386;2023-02-18T09:42:02;95287.91;;;13.99;36.68
18790;BME280;9523;42.650;23.386;2023-02-18T09:44:33;95283.25;;;14.37;36.28
18790;BME280;9523;42.650;23.386;2023-02-18T09:47:02;95272.88;;;14.90;35.35
18790;BME280;9523;42.650;23.386;2023-02-18T09:49:34;95257.69;;;14.69;34.89
18790;BME280;9523;42.650;23.386;2023-02-18T09:52:06;95270.88;;;14.60;35.11
18790;BME280;9523;42.650;23.386;2023-02-18T09:54:40;95278.81;;;14.74;34.52
18790;BME280;9523;42.650;23.386;2023-02-18T09:57:16;95278.50;;;15.25;34.03
18790;BME280;9523;42.650;23.386;2023-02-18T09:59:50;95289.84;;;14.67;34.55
18790;BME280;9523;42.650;23.386;2023-02-18T10:02:23;95279.38;;;14.30;34.89
18790;BME280;9523;42.650;23.386;2023-02-18T10:04:51;95268.25;;;14.14;35.45
18790;BME280;9523;42.650;23.386;2023-02-18T10:07:22;95274.84;;;13.57;36.41
18790;BME280;9523;42.650;23.386;2023-02-18T10:09:51;95266.88;;;14.03;35.87
18790;BME280;9523;42.650;23.386;2023-02-18T10:12:20;95260.34;;;14.69;34.98
18790;BME280;9523;42.650;23.386;2023-02-18T10:14:50;95263.47;;;15.20;34.16
18790;BME280;9523;42.650;23.386;2023-02-18T10:17:18;95257.13;;;16.27;32.57
18790;BME280;9523;42.650;23.386;2023-02-18T10:19:47;95256.41;;;17.18;31.20
18790;BME280;9523;42.650;23.386;2023-02-18T10:22:15;95243.69;;;17.66;30.58
18790;BME280;9523;42.650;23.386;2023-02-18T10:24:47;95260.72;;;18.55;29.44
18790;BME280;9523;42.650;23.386;2023-02-18T10:27:18;95262.19;;;18.73;28.19
18790;BME280;9523;42.650;23.386;2023-02-18T10:29:51;95235.81;;;18.92;28.18
18790;BME280;9523;42.650;23.386;2023-02-18T10:32:22;95245.94;;;18.87;28.32
18790;BME280;9523;42.650;23.386;2023-02-18T10:34:53;95248.00;;;18.81;28.28
18790;BME280;9523;42.650;23.386;2023-02-18T10:37:37;95249.91;;;18.43;29.18
18790;BME280;9523;42.650;23.386;2023-02-18T10:40:13;95241.94;;;18.63;29.03
18790;BME280;9523;42.650;23.386;2023-02-18T10:42:53;95234.06;;;19.38;27.48
18790;BME280;9523;42.650;23.386;2023-02-18T10:45:30;95215.00;;;20.05;26.74
18790;BME280;9523;42.650;23.386;2023-02-18T10:48:10;95224.34;;;19.54;26.59
18790;BME280;9523;42.650;23.386;2023-02-18T10:50:43;95200.44;;;19.82;26.38
18790;BME280;9523;42.650;23.386;2023-02-18T10:53:13;95209.06;;;19.99;26.47
18790;BME280;9523;42.650;23.386;2023-02-18T10:55:45;95205.28;;;20.12;25.90
18790;BME280;9523;42.650;23.386;2023-02-18T10:58:29;95180.47;;;21.00;24.93
18790;BME280;9523;42.650;23.386;2023-02-18T11:00:57;95208.00;;;20.73;25.31
18790;BME280;9523;42.650;23.386;2023-02-18T11:03:35;95209.22;;;20.88;24.62
18790;BME280;9523;42.650;23.386;2023-02-18T11:06:05;95200.09;;;19.83;25.88
18790;BME280;9523;42.650;23.386;2023-02-18T11:08:37;95188.06;;;19.44;26.57
18790;BME280;9523;42.650;23.386;2023-02-18T11:11:13;95168.72;;;18.85;27.05
18790;BME280;9523;42.650;23.386;2023-02-18T11:13:41;95179.88;;;18.28;27.74
18790;BME280;9523;42.650;23.386;2023-02-18T11:16:13;95174.13;;;18.97;27.50
18790;BME280;9523;42.650;23.386;2023-02-18T11:18:41;95149.44;;;19.66;26.67
18790;BME280;9523;42.650;23.386;2023-02-18T11:21:21;95163.81;;;19.41;26.77
18790;BME280;9523;42.650;23.386;2023-02-18T11:23:52;95153.56;;;19.31;26.86
18790;BME280;9523;42.650;23.386;2023-02-18T11:26:26;95149.22;;;19.05;27.15
18790;BME280;9523;42.650;23.386;2023-02-18T11:29:00;95153.44;;;19.06;26.85
18790;BME280;9523;42.650;23.386;2023-02-18T11:31:38;95144.53;;;18.82;27.33
18790;BME280;9523;42.650;23.386;2023-02-18T11:34:14;95128.94;;;19.37;26.55
18790;BME280;9523;42.650;23.386;2023-02-18T11:36:42;95124.22;;;19.67;26.21
18790;BME280;9523;42.650;23.386;2023-02-18T11:39:17;95125.81;;;19.92;25.83
18790;BME280;9523;42.650;23.386;2023-02-18T11:41:48;95130.97;;;20.22;25.88
18790;BME280;9523;42.650;23.386;2023-02-18T11:44:21;95113.56;;;20.40;26.22
18790;BME280;9523;42.650;23.386;2023-02-18T11:46:56;95105.25;;;20.69;26.00
18790;BME280;9523;42.650;23.386;2023-02-18T11:49:23;95120.38;;;20.89;25.06
18790;BME280;9523;42.650;23.386;2023-02-18T11:51:51;95110.31;;;20.86;25.00
18790;BME280;9523;42.650;23.386;2023-02-18T11:54:24;95116.94;;;21.44;23.64
18790;BME280;9523;42.650;23.386;2023-02-18T11:57:00;95115.13;;;21.80;22.98
18790;BME280;9523;42.650;23.386;2023-02-18T11:59:31;95106.56;;;21.74;22.95
18790;BME280;9523;42.650;23.386;2023-02-18T12:02:21;95087.50;;;21.79;22.81
18790;BME280;9523;42.650;23.386;2023-02-18T12:04:57;95082.84;;;22.08;22.97
18790;BME280;9523;42.650;23.386;2023-02-18T12:07:30;95075.81;;;21.87;23.02
18790;BME280;9523;42.650;23.386;2023-02-18T12:10:12;95065.31;;;21.82;22.74
18790;BME280;9523;42.650;23.386;2023-02-18T12:12:45;95070.19;;;22.08;22.50
18790;BME280;9523;42.650;23.386;2023-02-18T12:15:15;95062.06;;;22.59;22.64
18790;BME280;9523;42.650;23.386;2023-02-18T12:17:58;95061.63;;;22.91;22.03
18790;BME280;9523;42.650;23.386;2023-02-18T12:23:37;95063.78;;;23.24;22.96
18790;BME280;9523;42.650;23.386;2023-02-18T12:26:15;95048.50;;;23.28;22.14
18790;BME280;9523;42.650;23.386;2023-02-18T12:28:56;95044.41;;;22.23;23.33
18790;BME280;9523;42.650;23.386;2023-02-18T12:32:00;95040.34;;;21.19;23.95
18790;BME280;9523;42.650;23.386;2023-02-18T12:34:43;95037.75;;;20.95;23.81
18790;BME280;9523;42.650;23.386;2023-02-18T12:40:26;95042.84;;;20.84;24.47
18790;BME280;9523;42.650;23.386;2023-02-18T12:43:05;95036.91;;;20.51;24.99
18790;BME280;9523;42.650;23.386;2023-02-18T12:45:52;95007.66;;;20.06;25.43
18790;BME280;9523;42.650;23.386;2023-02-18T12:48:37;95001.41;;;20.54;25.15
18790;BME280;9523;42.650;23.386;2023-02-18T12:51:20;95015.28;;;20.44;25.40
18790;BME280;9523;42.650;23.386;2023-02-18T12:54:06;95017.31;;;20.10;25.95
18790;BME280;9523;42.650;23.386;2023-02-18T12:56:50;95022.72;;;20.78;25.92
18790;BME280;9523;42.650;23.386;2023-02-18T12:59:40;95017.25;;;21.62;24.90
18790;BME280;9523;42.650;23.386;2023-02-18T13:02:26;94978.34;;;21.71;24.46
18790;BME280;9523;42.650;23.386;2023-02-18T13:05:06;95018.69;;;22.41;23.95
18790;BME280;9523;42.650;23.386;2023-02-18T13:07:53;95020.75;;;22.47;22.88
18790;BME280;9523;42.650;23.386;2023-02-18T13:10:49;95023.31;;;22.79;23.21
18790;BME280;9523;42.650;23.386;2023-02-18T13:13:21;95024.59;;;22.31;23.36
18790;BME280;9523;42.650;23.386;2023-02-18T13:15:55;95019.72;;;22.01;23.07
18790;BME280;9523;42.650;23.386;2023-02-18T13:18:28;95028.00;;;21.77;23.02
18790;BME280;9523;42.650;23.386;2023-02-18T13:20:59;94988.25;;;20.92;23.75
18790;BME280;9523;42.650;23.386;2023-02-18T13:23:33;95005.34;;;20.72;24.01
18790;BME280;9523;42.650;23.386;2023-02-18T13:26:03;95008.22;;;20.51;24.34
18790;BME280;9523;42.650;23.386;2023-02-18T13:28:34;95004.88;;;20.02;24.80
18790;BME280;9523;42.650;23.386;2023-02-18T13:31:21;95004.19;;;20.05;25.00
18790;BME280;9523;42.650;23.386;2023-02-18T13:33:57;95004.22;;;19.81;25.07
18790;BME280;9523;42.650;23.386;2023-02-18T13:36:43;95031.06;;;19.03;25.84